Time;durP1;ratioP1;P1;durP2;ratioP2;P2;SDS_P1;SDS_P2;PMS_P1;PMS_P2;Temp;Humidity;BMP_temperature;BMP_pressure;BME280_temperature;BME280_humidity;BME280_pressure;Samples;Min_cycle;Max_cycle;Signal;HPM_P1;HPM_P2
2023/11/08 00:00:40;;;;;;;;;72.00;58.33;;;;;11.15;100.00;99359.19;6315913;20;3629465;-51
2023/11/08 00:03:10;;;;;;;;;76.00;62.67;;;;;11.15;100.00;99359.19;6278201;20;3636773;-44
2023/11/08 00:05:41;;;;;;;;;76.00;62.00;;;;;10.90;100.00;99359.16;6277212;20;3649316;-43
2023/11/08 00:08:11;;;;;;;;;77.33;62.00;;;;;10.71;100.00;99354.16;6275917;20;3659172;-43
2023/11/08 00:10:40;;;;;;;;;73.00;58.00;;;;;10.61;100.00;99353.06;6280481;20;3624221;-45
2023/11/08 00:13:10;;;;;;;;;80.67;64.00;;;;;10.66;100.00;99354.47;6279959;20;3679451;-42
2023/11/08 00:15:40;;;;;;;;;77.50;64.25;;;;;10.71;100.00;99359.53;6282097;20;3659780;-43
2023/11/08 00:18:10;;;;;;;;;74.25;60.00;;;;;10.93;100.00;99359.81;6314079;20;3624273;-50
2023/11/08 00:20:40;;;;;;;;;78.75;60.50;;;;;10.60;100.00;99352.22;6314252;20;4404584;-49
2023/11/08 00:23:10;;;;;;;;;72.75;61.00;;;;;11.05;100.00;99362.63;6312091;20;3642176;-51
2023/11/08 00:25:39;;;;;;;;;75.75;61.00;;;;;10.92;100.00;99365.28;6315852;20;4400277;-46
2023/11/08 00:28:09;;;;;;;;;75.25;63.25;;;;;10.88;100.00;99366.47;6313286;20;3648306;-50
2023/11/08 00:30:39;;;;;;;;;76.50;63.75;;;;;11.08;100.00;99363.25;6312774;20;3654586;-49
2023/11/08 00:33:09;;;;;;;;;75.67;59.67;;;;;10.85;100.00;99351.44;6309658;20;3652484;-52
2023/11/08 00:35:39;;;;;;;;;74.00;61.33;;;;;10.97;100.00;99344.34;6275647;20;3636701;-49
2023/11/08 00:38:09;;;;;;;;;70.67;56.33;;;;;11.04;100.00;99348.34;6278999;20;3609636;-52
2023/11/08 00:40:39;;;;;;;;;71.00;55.00;;;;;10.99;100.00;99337.03;6310259;20;3609660;-50
2023/11/08 00:43:08;;;;;;;;;74.67;58.00;;;;;10.60;100.00;99328.03;6312479;20;3621120;-44
2023/11/08 00:45:38;;;;;;;;;73.25;58.50;;;;;10.46;100.00;99334.34;6281459;20;3638782;-42
2023/11/08 00:48:07;;;;;;;;;76.00;62.00;;;;;10.79;100.00;99342.91;6313339;20;3651322;-50
2023/11/08 00:50:37;;;;;;;;;70.67;59.33;;;;;10.84;100.00;99332.72;6314735;20;3629510;-49
2023/11/08 00:53:06;;;;;;;;;73.33;59.33;;;;;10.87;100.00;99341.41;6282449;20;3646088;-49
2023/11/08 00:55:36;;;;;;;;;75.50;64.00;;;;;10.86;100.00;99341.53;6280960;20;4417936;-47
2023/11/08 00:58:08;;;;;;;;;78.25;62.25;;;;;10.79;100.00;99335.72;6310397;20;4415888;-49
2023/11/08 01:00:38;;;;;;;;;76.75;63.25;;;;;10.97;100.00;99330.91;6313150;20;4412756;-48
2023/11/08 01:03:08;;;;;;;;;73.50;58.00;;;;;10.85;100.00;99323.69;6311177;20;3639963;-51
2023/11/08 01:05:38;;;;;;;;;81.25;63.75;;;;;10.73;100.00;99315.50;6315987;20;4403356;-47
2023/11/08 01:08:08;;;;;;;;;73.25;58.00;;;;;10.83;100.00;99320.28;6311504;20;3641965;-50
2023/11/08 01:10:41;;;;;;;;;70.67;55.33;;;;;10.93;100.00;99326.72;6309343;20;3606511;-47
2023/11/08 01:13:12;;;;;;;;;72.00;59.33;;;;;10.56;100.00;99313.13;6312184;20;3633616;-48
2023/11/08 01:15:42;;;;;;;;;74.00;56.75;;;;;10.72;100.00;99313.81;6283195;20;3652362;-46
2023/11/08 01:18:12;;;;;;;;;70.67;54.67;;;;;10.80;100.00;99299.00;6310118;20;3623335;-49
2023/11/08 01:20:43;;;;;;;;;69.67;52.67;;;;;10.71;100.00;99306.69;6283350;20;3635702;-51
2023/11/08 01:23:13;;;;;;;;;59.00;46.00;;;;;10.72;100.00;99297.69;6277430;20;3641268;-48
2023/11/08 01:25:44;;;;;;;;;59.33;48.67;;;;;10.98;100.00;99303.09;6310808;20;3609636;-48
2023/11/08 01:28:13;;;;;;;;;52.33;41.67;;;;;11.19;100.00;99304.28;6311987;20;3605483;-47
2023/11/08 01:30:43;;;;;;;;;53.33;41.00;;;;;11.15;100.00;99294.69;6307747;20;2857759;-47
2023/11/08 01:33:12;;;;;;;;;52.67;43.67;;;;;10.94;100.00;99296.22;6313392;20;3610771;-38
2023/11/08 01:35:44;;;;;;;;;53.33;42.67;;;;;11.16;100.00;99296.44;6275333;20;3614867;-37
2023/11/08 01:38:13;;;;;;;;;53.67;43.67;;;;;11.04;100.00;99301.81;6312198;20;3601357;-48
2023/11/08 01:40:43;;;;;;;;;52.67;42.00;;;;;10.84;100.00;99292.44;6280091;20;3607694;-43
2023/11/08 01:43:33;;;;;;;;;42.33;36.00;;;;;10.93;100.00;99307.94;6314434;20;3604853;-41
2023/11/08 01:46:18;;;;;;;;;36.67;30.67;;;;;10.98;100.00;99308.47;6278129;20;2845197;-44
2023/11/08 01:48:48;;;;;;;;;36.33;34.00;;;;;11.11;100.00;99306.66;6311010;20;3575259;-41
2023/11/08 01:51:18;;;;;;;;;41.33;33.00;;;;;11.12;100.00;99294.91;6277784;20;3613768;-50
2023/11/08 01:53:49;;;;;;;;;40.67;33.67;;;;;10.86;100.00;99287.81;6279678;20;3606589;-48
2023/11/08 01:56:19;;;;;;;;;31.33;28.67;;;;;10.83;100.00;99298.78;6276958;20;3596222;-49
2023/11/08 01:58:51;;;;;;;;;24.00;22.00;;;;;10.89;100.00;99292.97;6312768;20;3574232;-47
2023/11/08 02:01:20;;;;;;;;;26.50;22.50;;;;;10.80;100.00;99301.69;6271154;20;2500310;-47
2023/11/08 02:03:54;;;;;;;;;21.00;20.00;;;;;10.89;100.00;99299.19;6274722;20;2839331;-47
2023/11/08 02:06:23;;;;;;;;;21.00;21.00;;;;;11.02;100.00;99309.97;6277632;20;2839924;-37
2023/11/08 02:08:52;;;;;;;;;15.67;15.67;;;;;10.70;100.00;99304.97;6277886;20;3535077;-38
2023/11/08 02:11:23;;;;;;;;;19.50;18.50;;;;;10.94;100.00;99306.94;6276686;20;2839895;-51
2023/11/08 02:13:50;;;;;;;;;11.50;9.00;;;;;10.80;100.00;99301.69;6281112;20;2756594;-48
2023/11/08 02:16:19;;;;;;;;;22.50;20.50;;;;;10.61;100.00;99294.88;6277325;20;2848176;-46
2023/11/08 02:18:49;;;;;;;;;18.50;18.50;;;;;10.68;100.00;99289.94;6277491;20;2839910;-43
2023/11/08 02:21:18;;;;;;;;;25.00;23.50;;;;;10.89;100.00;99287.59;6279467;20;2835753;-43
2023/11/08 02:23:47;;;;;;;;;23.00;23.00;;;;;11.04;100.00;99291.06;6278878;20;2841957;-43
2023/11/08 02:26:18;;;;;;;;;106.00;96.25;;;;;10.83;100.00;99290.72;6284681;20;3689942;-47
2023/11/08 02:28:46;;;;;;;;;40.33;35.67;;;;;10.91;100.00;99288.38;6314665;20;3600221;-44
2023/11/08 02:31:17;;;;;;;;;17.50;16.50;;;;;10.87;100.00;99284.16;6281181;20;2500379;-45
2023/11/08 02:33:45;;;;;;;;;17.33;16.33;;;;;11.02;100.00;99293.84;6285263;20;2831548;-43
2023/11/08 02:36:13;;;;;;;;;16.00;14.50;;;;;11.18;100.00;99291.78;6314191;20;2798244;-43
2023/11/08 02:38:42;;;;;;;;;20.00;20.00;;;;;10.93;100.00;99291.81;6279441;20;2491990;-51
2023/11/08 02:41:10;;;;;;;;;17.00;17.00;;;;;10.96;100.00;99286.22;6279216;20;2496070;-50
2023/11/08 02:43:39;;;;;;;;;25.00;22.00;;;;;11.06;100.00;99294.47;6280722;20;2839863;-50
2023/11/08 02:46:09;;;;;;;;;26.33;26.33;;;;;11.02;100.00;99293.84;6283749;20;2848235;-48
2023/11/08 02:48:39;;;;;;;;;27.67;25.67;;;;;11.16;100.00;99299.13;6314399;20;3594008;-50
2023/11/08 02:51:09;;;;;;;;;37.00;32.00;;;;;11.19;100.00;99296.22;6278919;20;2848302;-47
2023/11/08 02:53:38;;;;;;;;;44.33;36.33;;;;;11.35;100.00;99301.38;6313861;20;2848292;-47
2023/11/08 02:56:08;;;;;;;;;51.33;41.00;;;;;11.25;100.00;99304.81;6312699;20;3606534;-47
2023/11/08 02:58:38;;;;;;;;;50.33;40.33;;;;;11.31;100.00;99315.13;6312537;20;3608580;-38
2023/11/08 03:01:07;;;;;;;;;44.00;34.50;;;;;11.07;100.00;99306.97;6312682;20;2865943;-50
2023/11/08 03:03:36;;;;;;;;;19.50;16.00;;;;;10.74;100.00;99314.56;6282149;20;2831530;-49
2023/11/08 03:06:05;;;;;;;;;18.00;16.67;;;;;10.75;100.00;99307.38;6279592;20;3562767;-51
2023/11/08 03:08:34;;;;;;;;;6.25;2.25;;;;;10.79;100.00;99310.69;6303174;20;1806568;-44
2023/11/08 03:11:02;;;;;;;;;6.00;6.00;;;;;10.44;100.00;99314.81;6313251;20;2726364;-48
2023/11/08 03:13:32;;;;;;;;;7.00;6.00;;;;;10.36;100.00;99310.91;6284738;20;2734626;-48
2023/11/08 03:16:00;;;;;;;;;12.00;8.00;;;;;10.54;100.00;99307.84;6280420;20;2752351;-50
2023/11/08 03:18:28;;;;;;;;;6.50;6.50;;;;;10.30;100.00;99313.03;6288654;20;2738223;-43
2023/11/08 03:20:59;;;;;;;;;8.00;8.00;;;;;10.47;100.00;99303.00;6322328;20;2487794;-43
2023/11/08 03:23:28;;;;;;;;;16.33;16.33;;;;;10.53;100.00;99305.25;6311242;20;3550264;-46
2023/11/08 03:25:56;;;;;;;;;14.00;14.00;;;;;10.45;100.00;99300.44;6316165;20;2800269;-44
2023/11/08 03:28:24;;;;;;;;;19.00;14.50;;;;;10.22;100.00;99299.25;6286403;20;2809753;-44
2023/11/08 03:30:52;;;;;;;;;18.50;17.50;;;;;10.55;100.00;99295.28;6278866;20;2491999;-53
2023/11/08 03:33:20;;;;;;;;;18.00;16.00;;;;;10.40;100.00;99313.31;6276302;20;2492058;-49
2023/11/08 03:35:50;;;;;;;;;11.00;11.00;;;;;10.32;100.00;99316.50;6305450;20;2794053;-51
2023/11/08 03:38:18;;;;;;;;;12.00;10.00;;;;;10.19;100.00;99320.03;6282624;20;2789887;-47
2023/11/08 03:40:48;;;;;;;;;10.80;9.40;;;;;9.89;100.00;99321.94;6308809;20;2778802;-48
2023/11/08 03:43:17;;;;;;;;;5.00;4.00;;;;;9.88;100.00;99327.41;6282717;20;2752349;-54
2023/11/08 03:45:45;;;;;;;;;6.00;6.00;;;;;9.95;100.00;99327.88;6280123;20;2736788;-47
2023/11/08 03:48:15;;;;;;;;;8.40;6.60;;;;;9.88;100.00;99333.63;6309978;20;2738819;-53
2023/11/08 03:50:43;;;;;;;;;8.00;8.00;;;;;9.89;100.00;99338.03;6315993;20;2733659;-46
2023/11/08 03:53:11;;;;;;;;;7.00;7.00;;;;;9.62;100.00;99326.41;6283588;20;2737791;-49
2023/11/08 03:55:39;;;;;;;;;9.00;6.00;;;;;9.64;100.00;99335.22;6284266;20;2745086;-49
2023/11/08 03:58:07;;;;;;;;;6.50;6.50;;;;;9.89;100.00;99340.72;6284790;20;2738927;-52
2023/11/08 04:00:36;;;;;;;;;5.00;5.00;;;;;9.83;100.00;99330.38;6316136;20;2736845;-49
2023/11/08 04:03:05;;;;;;;;;5.00;5.00;;;;;9.62;100.00;99342.47;6279118;20;2748446;-51
2023/11/08 04:05:32;;;;;;;;;5.00;4.00;;;;;9.80;100.00;99356.53;6282858;20;2754527;-52
2023/11/08 04:08:00;;;;;;;;;7.00;5.00;;;;;9.82;100.00;99355.50;6281619;20;2746235;-50
2023/11/08 04:10:28;;;;;;;;;7.00;4.00;;;;;9.63;100.00;99350.41;6285275;20;2734772;-45
2023/11/08 04:12:57;;;;;;;;;5.75;4.00;;;;;9.73;100.00;99355.19;6298627;20;1811757;-43
2023/11/08 04:15:25;;;;;;;;;4.00;4.00;;;;;9.75;100.00;99367.56;6316284;20;2754463;-47
2023/11/08 04:17:53;;;;;;;;;3.50;3.50;;;;;9.66;100.00;99360.97;6283079;20;2750312;-38
2023/11/08 04:20:23;;;;;;;;;3.33;3.33;;;;;9.80;100.00;99373.50;6303905;20;1811402;-39
2023/11/08 04:22:51;;;;;;;;;4.50;4.50;;;;;9.87;100.00;99364.09;6315691;20;2754414;-48
2023/11/08 04:25:19;;;;;;;;;3.00;3.00;;;;;9.82;100.00;99366.22;6284473;20;2735732;-52
2023/11/08 04:27:47;;;;;;;;;4.00;4.00;;;;;9.91;100.00;99358.53;6285531;20;2739960;-50
2023/11/08 04:30:15;;;;;;;;;2.00;2.00;;;;;9.77;100.00;99354.91;6282740;20;2752382;-53
2023/11/08 04:32:44;;;;;;;;;2.00;2.00;;;;;9.77;100.00;99362.97;6295869;20;1809738;-48
2023/11/08 04:35:12;;;;;;;;;2.00;2.00;;;;;9.73;100.00;99366.78;6333106;20;1809758;-54
2023/11/08 04:37:40;;;;;;;;;2.00;2.00;;;;;9.72;100.00;99365.06;6282454;20;2744112;-50
2023/11/08 04:40:10;;;;;;;;;3.50;3.00;;;;;9.67;100.00;99375.22;6285047;20;2752367;-53
2023/11/08 04:42:38;;;;;;;;;2.50;1.50;;;;;9.61;100.00;99375.59;6280985;20;2739878;-43
2023/11/08 04:45:07;;;;;;;;;2.00;2.00;;;;;9.71;100.00;99390.13;6285666;20;2731514;-46
2023/11/08 04:47:37;;;;;;;;;3.00;3.00;;;;;9.58;100.00;99390.03;6284858;20;2739908;-43
2023/11/08 04:50:06;;;;;;;;;4.50;3.00;;;;;9.73;100.00;99387.38;6280928;20;2745072;-44
2023/11/08 04:52:34;;;;;;;;;2.00;2.00;;;;;9.63;100.00;99395.13;6280182;20;2750307;-44
2023/11/08 04:55:02;;;;;;;;;3.50;2.00;;;;;9.61;100.00;99402.38;6280996;20;2744051;-47
2023/11/08 04:57:32;;;;;;;;;3.00;3.00;;;;;9.55;100.00;99400.09;6280540;20;2753469;-43
2023/11/08 05:00:01;;;;;;;;;1.00;1.00;;;;;9.65;100.00;99399.44;6301326;20;1809582;-44
2023/11/08 05:02:34;;;;;;;;;1.00;1.00;;;;;9.55;100.00;99394.75;6328709;20;1807643;-52
2023/11/08 05:05:04;;;;;;;;;2.25;1.00;;;;;9.54;100.00;99393.88;6333037;20;1800383;-51
2023/11/08 05:07:33;;;;;;;;;2.00;2.00;;;;;9.45;100.00;99387.28;6328168;20;1811837;-49
2023/11/08 05:10:02;;;;;;;;;2.00;2.00;;;;;9.58;100.00;99391.88;6330547;20;1810333;-51
2023/11/08 05:12:31;;;;;;;;;1.75;1.75;;;;;9.63;100.00;99387.09;6327921;20;1809829;-50
2023/11/08 05:15:00;;;;;;;;;3.25;2.00;;;;;9.62;100.00;99386.22;6330994;20;1804497;-49
2023/11/08 05:17:29;;;;;;;;;1.00;1.00;;;;;9.65;100.00;99385.16;6331962;20;1807781;-51
2023/11/08 05:19:58;;;;;;;;;2.00;2.00;;;;;9.40;100.00;99402.78;6329425;20;1811884;-50
2023/11/08 05:22:27;;;;;;;;;0.00;0.00;;;;;9.45;100.00;99398.00;6329353;20;1803478;-39
2023/11/08 05:24:55;;;;;;;;;1.00;1.00;;;;;9.33;100.00;99403.25;6329982;20;1803268;-38
2023/11/08 05:27:24;;;;;;;;;1.25;1.25;;;;;9.50;100.00;99407.56;6332016;20;1806677;-38
2023/11/08 05:29:53;;;;;;;;;1.50;1.50;;;;;9.34;100.00;99413.84;6330602;20;1814008;-38
2023/11/08 05:32:23;;;;;;;;;2.00;2.00;;;;;9.45;100.00;99413.19;6310977;20;2739843;-39
2023/11/08 05:34:51;;;;;;;;;3.00;3.00;;;;;9.38;100.00;99418.09;6279986;20;2750277;-46
2023/11/08 05:37:19;;;;;;;;;3.00;3.00;;;;;9.42;100.00;99411.56;6282759;20;2741954;-47
2023/11/08 05:39:47;;;;;;;;;5.00;3.50;;;;;9.50;100.00;99418.28;6285402;20;2742969;-48
2023/11/08 05:42:22;;;;;;;;;5.00;4.00;;;;;9.44;100.00;99419.53;6292347;20;1810784;-47
2023/11/08 05:44:52;;;;;;;;;5.00;5.00;;;;;9.30;100.00;99423.06;6310803;20;2752930;-38
2023/11/08 05:47:22;;;;;;;;;5.00;3.00;;;;;9.44;100.00;99431.09;6304668;20;2735697;-53
2023/11/08 05:49:50;;;;;;;;;4.00;4.00;;;;;9.55;100.00;99432.25;6310343;20;2751393;-38
2023/11/08 05:52:19;;;;;;;;;5.00;4.00;;;;;9.40;100.00;99439.41;6294435;20;1810863;-38
2023/11/08 05:54:52;;;;;;;;;2.67;2.67;;;;;9.75;100.00;99449.81;6328115;20;1807660;-40
2023/11/08 05:57:20;;;;;;;;;3.00;3.00;;;;;9.52;100.00;99440.50;6319790;20;2748138;-39
2023/11/08 05:59:48;;;;;;;;;4.00;4.00;;;;;9.60;100.00;99446.25;6283973;20;2754456;-49
2023/11/08 06:02:17;;;;;;;;;6.00;5.00;;;;;9.49;100.00;99443.38;6282755;20;2747124;-46
2023/11/08 06:04:44;;;;;;;;;4.50;4.50;;;;;9.63;100.00;99457.63;6287878;20;2737832;-49
2023/11/08 06:07:12;;;;;;;;;6.50;5.00;;;;;9.54;100.00;99462.72;6286042;20;2748212;-47
2023/11/08 06:09:43;;;;;;;;;4.00;4.00;;;;;9.67;100.00;99466.38;6284894;20;2744122;-51
2023/11/08 06:12:11;;;;;;;;;7.00;6.00;;;;;9.80;100.00;99471.84;6284378;20;2739864;-51
2023/11/08 06:14:39;;;;;;;;;6.50;6.00;;;;;9.68;100.00;99476.13;6303715;20;1803322;-46
2023/11/08 06:17:07;;;;;;;;;6.50;6.50;;;;;9.75;100.00;99481.97;6319625;20;2742112;-47
2023/11/08 06:19:35;;;;;;;;;7.50;7.50;;;;;9.57;100.00;99482.13;6286354;20;2745261;-51
2023/11/08 06:22:03;;;;;;;;;6.00;6.00;;;;;9.72;100.00;99492.91;6284512;20;2719043;-40
2023/11/08 06:24:32;;;;;;;;;9.00;9.00;;;;;9.64;100.00;99490.69;6304488;20;1809705;-40
2023/11/08 06:27:00;;;;;;;;;7.50;6.50;;;;;9.67;100.00;99494.03;6317424;20;2734675;-40
2023/11/08 06:29:36;;;;;;;;;9.00;9.00;;;;;9.66;100.00;99494.09;6327781;20;1812804;-39
2023/11/08 06:32:08;;;;;;;;;7.00;7.00;;;;;9.70;100.00;99494.81;6316950;20;2733708;-40
2023/11/08 06:34:40;;;;;;;;;10.20;8.20;;;;;9.74;100.00;99509.72;6306718;20;2759664;-40
2023/11/08 06:37:08;;;;;;;;;8.00;6.50;;;;;9.93;100.00;99506.81;6286102;20;2746673;-38
2023/11/08 06:39:37;;;;;;;;;14.00;13.00;;;;;9.66;100.00;99508.41;6286757;20;2790907;-43
2023/11/08 06:42:07;;;;;;;;;20.67;16.33;;;;;9.81;100.00;99517.31;6280798;20;3554904;-44
2023/11/08 06:44:35;;;;;;;;;10.00;9.00;;;;;9.82;100.00;99515.47;6288480;20;2763890;-44
2023/11/08 06:47:05;;;;;;;;;9.40;9.00;;;;;9.81;100.00;99514.63;6308111;20;2760761;-48
2023/11/08 06:49:37;;;;;;;;;15.00;14.00;;;;;9.95;100.00;99520.97;6314678;20;3530505;-50
2023/11/08 06:52:05;;;;;;;;;17.00;17.00;;;;;10.11;100.00;99527.13;6278944;20;2496108;-43
2023/11/08 06:54:34;;;;;;;;;18.67;17.00;;;;;10.05;100.00;99527.47;6283831;20;2830522;-43
2023/11/08 06:57:03;;;;;;;;;15.50;13.00;;;;;10.06;100.00;99524.72;6315586;20;2804567;-44
2023/11/08 06:59:32;;;;;;;;;15.33;13.33;;;;;10.11;100.00;99537.84;6282369;20;2790232;-52
2023/11/08 07:02:01;;;;;;;;;15.50;14.00;;;;;10.08;100.00;99538.00;6317008;20;2811705;-47
2023/11/08 07:04:30;;;;;;;;;11.67;11.67;;;;;10.21;100.00;99538.13;6281910;20;3515905;-49
2023/11/08 07:07:02;;;;;;;;;12.00;10.00;;;;;10.84;100.00;99537.69;6335253;20;2783608;-43
2023/11/08 07:09:31;;;;;;;;;14.00;12.33;;;;;12.50;97.51;99546.06;6281694;20;3535664;-47
2023/11/08 07:11:59;;;;;;;;;10.67;10.67;;;;;11.52;98.13;99539.44;6313843;20;2787904;-44
2023/11/08 07:14:29;;;;;;;;;10.60;10.00;;;;;10.82;100.00;99545.00;6340627;20;2790096;-44
2023/11/08 07:16:58;;;;;;;;;12.67;12.00;;;;;10.81;100.00;99550.47;6283138;20;2790915;-39
2023/11/08 07:19:27;;;;;;;;;5.00;5.00;;;;;11.04;100.00;99549.81;6317258;20;2748361;-39
2023/11/08 07:21:56;;;;;;;;;10.00;10.00;;;;;11.07;100.00;99560.38;6283038;20;2798237;-38
2023/11/08 07:24:24;;;;;;;;;9.00;9.00;;;;;11.38;100.00;99564.56;6285748;20;2760846;-39
2023/11/08 07:26:57;;;;;;;;;8.14;8.14;;;;;11.04;100.00;99563.25;6327924;20;3461763;-39
2023/11/08 07:29:25;;;;;;;;;12.00;11.00;;;;;10.97;100.00;99559.25;6319031;20;2790999;-48
2023/11/08 07:31:52;;;;;;;;;9.00;9.00;;;;;10.59;100.00;99569.78;6282552;20;2758614;-49
2023/11/08 07:34:23;;;;;;;;;9.00;9.00;;;;;10.83;100.00;99572.72;6282118;20;2762907;-49
2023/11/08 07:36:55;;;;;;;;;8.14;8.14;;;;;10.39;100.00;99573.72;6327926;20;1806615;-49
2023/11/08 07:39:23;;;;;;;;;11.00;9.00;;;;;10.55;100.00;99582.53;6315517;20;2775656;-47
2023/11/08 07:41:55;;;;;;;;;10.00;10.00;;;;;10.36;100.00;99582.81;6280404;20;2788924;-51
2023/11/08 07:44:22;;;;;;;;;9.00;9.00;;;;;10.33;100.00;99581.19;6288345;20;2742987;-54
2023/11/08 07:46:51;;;;;;;;;7.00;7.00;;;;;10.50;100.00;99587.31;6285528;20;2737752;-49
2023/11/08 07:49:19;;;;;;;;;7.50;7.00;;;;;10.80;100.00;99595.25;6286876;20;2730504;-47
2023/11/08 07:51:48;;;;;;;;;9.00;9.00;;;;;11.11;98.97;99596.84;6286112;20;2756518;-49
2023/11/08 07:54:18;;;;;;;;;7.80;7.60;;;;;11.23;97.52;99592.47;6307830;20;2736138;-44
2023/11/08 07:56:46;;;;;;;;;8.00;7.50;;;;;11.47;97.01;99586.44;6310469;20;2741982;-42
2023/11/08 07:59:16;;;;;;;;;10.00;10.00;;;;;11.50;96.25;99595.13;6307927;20;2789898;-46
2023/11/08 08:01:47;;;;;;;;;9.00;9.00;;;;;11.22;97.02;99596.13;6309640;20;2751375;-38
2023/11/08 08:04:15;;;;;;;;;8.00;8.00;;;;;11.29;96.50;99591.19;6311882;20;2747271;-47
2023/11/08 08:06:47;;;;;;;;;7.20;6.00;;;;;11.51;94.65;99602.25;6324094;20;2469006;-48
2023/11/08 08:09:17;;;;;;;;;8.00;8.00;;;;;11.43;94.32;99597.41;6316723;20;2736755;-51
2023/11/08 08:11:46;;;;;;;;;13.50;11.00;;;;;11.54;93.46;99596.69;6281975;20;2790033;-52
2023/11/08 08:14:14;;;;;;;;;8.00;8.00;;;;;11.69;91.60;99600.16;6287792;20;2744077;-49
2023/11/08 08:16:44;;;;;;;;;3.00;3.00;;;;;11.36;89.16;99605.97;6288952;20;2731535;-48
2023/11/08 08:19:11;;;;;;;;;5.00;5.00;;;;;11.45;87.12;99601.78;6287049;20;2742008;-46
2023/11/08 08:21:39;;;;;;;;;6.50;5.00;;;;;11.58;87.54;99598.19;6286003;20;2749367;-38
2023/11/08 08:24:09;;;;;;;;;33.33;28.00;;;;;11.52;86.74;99603.97;6282526;20;3606606;-38
2023/11/08 08:26:39;;;;;;;;;18.67;17.67;;;;;11.33;84.78;99604.34;6317834;20;3571241;-38
2023/11/08 08:29:09;;;;;;;;;10.50;10.50;;;;;11.41;86.68;99596.63;6317672;20;2774360;-39
2023/11/08 08:31:37;;;;;;;;;11.00;9.50;;;;;11.45;85.03;99610.72;6302123;20;1810671;-43
2023/11/08 08:34:07;;;;;;;;;3.00;3.00;;;;;11.43;83.54;99616.22;6288038;20;2756681;-51
2023/11/08 08:36:41;;;;;;;;;2.00;2.00;;;;;11.35;84.63;99623.06;6286943;20;2743025;-48
2023/11/08 08:39:09;;;;;;;;;3.00;3.00;;;;;11.87;85.11;99622.28;6288164;20;2750310;-49
2023/11/08 08:41:37;;;;;;;;;4.00;4.00;;;;;11.81;82.82;99626.22;6282991;20;2752450;-48
2023/11/08 08:44:05;;;;;;;;;3.00;3.00;;;;;11.87;84.32;99624.97;6287759;20;2736264;-44
2023/11/08 08:46:33;;;;;;;;;4.00;2.00;;;;;11.98;80.89;99625.13;6284324;20;2724272;-44
2023/11/08 08:49:02;;;;;;;;;5.75;2.00;;;;;12.00;80.91;99627.69;6299443;20;1799411;-43
2023/11/08 08:51:30;;;;;;;;;2.50;1.00;;;;;11.91;80.47;99637.25;6317854;20;2734755;-44
2023/11/08 08:53:57;;;;;;;;;3.00;3.00;;;;;11.81;79.95;99638.81;6282852;20;2737949;-44
2023/11/08 08:56:27;;;;;;;;;4.00;4.00;;;;;11.58;80.64;99635.81;6284303;20;2753544;-46
2023/11/08 08:58:55;;;;;;;;;2.00;2.00;;;;;11.70;81.50;99638.69;6288121;20;2746205;-49
2023/11/08 09:01:23;;;;;;;;;5.50;3.00;;;;;11.79;80.25;99638.91;6285132;20;2739875;-41
2023/11/08 09:03:51;;;;;;;;;2.00;2.00;;;;;11.89;80.30;99638.31;6286658;20;2753891;-49
2023/11/08 09:06:19;;;;;;;;;3.50;3.50;;;;;11.92;80.11;99638.13;6288207;20;2750283;-55
2023/11/08 09:08:48;;;;;;;;;3.00;3.00;;;;;12.17;80.25;99643.56;6281042;20;2736980;-51
2023/11/08 09:11:15;;;;;;;;;3.50;3.50;;;;;12.03;78.96;99646.31;6284004;20;2755554;-52
2023/11/08 09:13:43;;;;;;;;;2.00;2.00;;;;;11.94;79.87;99641.56;6288432;20;2730602;-50
2023/11/08 09:16:11;;;;;;;;;3.00;3.00;;;;;12.25;79.22;99637.66;6284047;20;2751844;-39
2023/11/08 09:18:41;;;;;;;;;2.75;2.75;;;;;11.83;79.29;99628.81;6302160;20;1803626;-48
2023/11/08 09:21:09;;;;;;;;;3.00;3.00;;;;;12.09;79.41;99632.44;6316042;20;2735941;-46
2023/11/08 09:23:39;;;;;;;;;4.00;2.00;;;;;12.37;78.52;99644.00;6281241;20;2752412;-51
2023/11/08 09:26:09;;;;;;;;;2.33;2.33;;;;;12.17;78.64;99640.00;6305638;20;1806168;-43
2023/11/08 09:28:37;;;;;;;;;4.50;4.00;;;;;12.48;78.38;99642.28;6316482;20;2739112;-52
2023/11/08 09:31:06;;;;;;;;;2.00;2.00;;;;;12.27;78.97;99633.03;6297338;20;1807737;-49
2023/11/08 09:33:35;;;;;;;;;1.33;1.33;;;;;12.39;77.62;99636.66;6334287;20;1803462;-47
2023/11/08 09:36:06;;;;;;;;;5.00;2.00;;;;;12.55;77.90;99642.69;6314263;20;2752507;-43
2023/11/08 09:38:34;;;;;;;;;1.00;1.00;;;;;12.33;78.56;99643.34;6283976;20;2730535;-44
2023/11/08 09:41:02;;;;;;;;;2.50;2.50;;;;;12.28;77.03;99642.81;6285477;20;2752465;-39
2023/11/08 09:43:31;;;;;;;;;3.00;3.00;;;;;12.60;78.31;99645.06;6284520;20;2748279;-39
2023/11/08 09:46:03;;;;;;;;;6.00;4.00;;;;;12.59;77.70;99640.66;6283390;20;2744187;-47
2023/11/08 09:48:31;;;;;;;;;3.00;2.00;;;;;12.57;77.18;99630.00;6281835;20;2752369;-43
2023/11/08 09:50:59;;;;;;;;;3.00;2.00;;;;;12.78;76.41;99649.16;6284957;20;2729458;-49
2023/11/08 09:53:26;;;;;;;;;4.00;2.50;;;;;12.56;77.17;99643.56;6283272;20;2755548;-39
2023/11/08 09:55:58;;;;;;;;;2.00;2.00;;;;;12.83;75.45;99646.13;6281718;20;2731577;-43
2023/11/08 09:58:27;;;;;;;;;2.00;2.00;;;;;13.12;74.60;99662.91;6284175;20;2739985;-53
2023/11/08 10:00:55;;;;;;;;;2.00;2.00;;;;;12.59;72.80;99655.00;6280398;20;2755527;-46
2023/11/08 10:03:26;;;;;;;;;2.50;1.50;;;;;12.65;72.88;99669.84;6298362;20;1804522;-56
2023/11/08 10:05:54;;;;;;;;;2.00;2.00;;;;;12.74;70.67;99670.09;6318490;20;2727801;-44
2023/11/08 10:08:23;;;;;;;;;1.00;1.00;;;;;12.54;71.47;99678.69;6284415;20;2730629;-43
2023/11/08 10:10:54;;;;;;;;;4.00;3.00;;;;;12.66;70.85;99676.94;6283712;20;2756527;-44
2023/11/08 10:13:45;;;;;;;;;1.00;1.00;;;;;12.76;70.31;99672.66;6283708;20;2727397;-51
2023/11/08 10:16:17;;;;;;;;;1.00;1.00;;;;;12.61;70.69;99681.81;6300685;20;1798264;-49
2023/11/08 10:18:58;;;;;;;;;3.00;2.00;;;;;12.82;69.46;99679.44;6315219;20;2733656;-40
2023/11/08 10:21:49;;;;;;;;;1.50;1.50;;;;;12.66;69.38;99671.56;6279875;20;2732668;-47
2023/11/08 10:24:17;;;;;;;;;7.00;7.00;;;;;12.48;70.15;99668.31;6281074;20;2738881;-44
2023/11/08 10:26:46;;;;;;;;;5.00;5.00;;;;;12.59;69.18;99664.91;6286948;20;2746124;-45
2023/11/08 10:29:15;;;;;;;;;4.50;3.00;;;;;12.45;69.42;99669.44;6282237;20;2735909;-52
2023/11/08 10:31:45;;;;;;;;;2.00;2.00;;;;;12.48;68.01;99671.03;6280385;20;2748202;-46
2023/11/08 10:34:16;;;;;;;;;2.00;2.00;;;;;12.52;67.64;99662.63;6285402;20;2739897;-51
2023/11/08 10:36:43;;;;;;;;;2.50;2.50;;;;;12.64;67.66;99670.84;6283284;20;2748211;-48
2023/11/08 10:39:13;;;;;;;;;2.50;2.50;;;;;12.64;68.51;99666.31;6282373;20;2752400;-48
2023/11/08 10:41:47;;;;;;;;;2.00;2.00;;;;;12.82;67.59;99664.16;6286361;20;2746155;-53
2023/11/08 10:44:22;;;;;;;;;2.50;2.50;;;;;12.72;67.50;99660.38;6288510;20;2754582;-54
2023/11/08 10:46:58;;;;;;;;;3.00;1.75;;;;;12.89;67.93;99656.47;6307553;20;1805090;-52
2023/11/08 10:49:26;;;;;;;;;9.00;6.00;;;;;13.08;66.98;99647.91;6320711;20;2739952;-51
2023/11/08 10:51:56;;;;;;;;;1.00;1.00;;;;;12.78;66.40;99649.16;6289286;20;2729512;-51
2023/11/08 10:54:24;;;;;;;;;3.00;3.00;;;;;12.86;67.33;99654.00;6285865;20;2733599;-50
2023/11/08 10:56:55;;;;;;;;;3.00;2.00;;;;;13.15;66.91;99668.06;6289685;20;2735726;-52
2023/11/08 10:59:24;;;;;;;;;2.50;2.50;;;;;13.07;64.46;99660.53;6288301;20;2724292;-50
2023/11/08 11:01:53;;;;;;;;;2.00;2.00;;;;;12.91;63.78;99660.78;6286129;20;2735680;-54
2023/11/08 11:04:24;;;;;;;;;2.00;2.00;;;;;12.89;62.83;99668.09;6286248;20;2753499;-49
2023/11/08 11:06:54;;;;;;;;;1.00;1.00;;;;;12.88;63.55;99649.38;6304142;20;1802499;-48
2023/11/08 11:09:23;;;;;;;;;1.00;1.00;;;;;12.91;63.36;99658.09;6319069;20;2728502;-52
2023/11/08 11:12:06;;;;;;;;;5.00;2.00;;;;;12.84;63.72;99658.63;6286188;20;2750278;-50
2023/11/08 11:14:45;;;;;;;;;3.00;3.00;;;;;12.83;64.16;99657.78;6286252;20;2733843;-54
2023/11/08 11:17:33;;;;;;;;;1.25;1.25;;;;;13.23;64.06;99654.88;6301918;20;1793296;-40